createdAt,value
2023-04-14T00:02:54.322Z,60.81
2023-04-14T00:06:58.700Z,60.60
2023-04-14T00:10:59.421Z,60.50
2023-04-14T00:15:03.472Z,60.99
2023-04-14T00:19:03.992Z,61.39
2023-04-14T00:23:04.583Z,61.47
2023-04-14T00:27:05.319Z,61.11
2023-04-14T00:31:08.862Z,60.97
2023-04-14T00:35:10.268Z,61.18
2023-04-14T00:39:10.742Z,61.99
2023-04-14T00:43:11.169Z,61.16
2023-04-14T00:47:14.602Z,60.92
2023-04-14T00:51:16.156Z,61.16
2023-04-14T00:55:19.118Z,61.04
2023-04-14T00:59:20.617Z,60.90
2023-04-14T01:03:25.018Z,60.64
2023-04-14T01:07:28.830Z,60.25
2023-04-14T01:11:52.183Z,60.01
2023-04-14T01:16:00.612Z,60.45
2023-04-14T01:20:23.088Z,59.59
2023-04-14T01:24:43.602Z,59.53
2023-04-14T01:29:14.242Z,59.79
2023-04-14T01:33:25.730Z,59.42
2023-04-14T01:37:34.567Z,59.68
2023-04-14T01:41:37.356Z,60.09
2023-04-14T01:45:46.530Z,60.56
2023-04-14T01:49:55.884Z,60.63
2023-04-14T01:54:00.717Z,60.62
2023-04-14T01:58:06.942Z,60.24
2023-04-14T02:02:12.690Z,59.56
2023-04-14T02:06:17.300Z,60.22
2023-04-14T02:10:21.621Z,59.96
2023-04-14T02:14:24.748Z,60.13
2023-04-14T02:18:27.396Z,60.13
2023-04-14T02:22:31.319Z,59.79
2023-04-14T02:26:39.959Z,59.47
2023-04-14T02:30:45.377Z,59.25
2023-04-14T02:34:55.709Z,59.59
2023-04-14T02:39:03.875Z,59.67
2023-04-14T02:43:14.787Z,59.90
2023-04-14T02:47:27.064Z,59.71
2023-04-14T02:51:34.692Z,59.84
2023-04-14T02:55:40.009Z,59.32
2023-04-14T02:59:45.237Z,59.21
2023-04-14T03:03:47.141Z,59.97
2023-04-14T03:07:50.234Z,59.36
2023-04-14T03:11:58.419Z,59.70
2023-04-14T03:16:01.580Z,59.70
2023-04-14T03:20:04.355Z,60.20
2023-04-14T03:24:06.963Z,59.95
2023-04-14T03:28:16.804Z,60.19
2023-04-14T03:32:23.269Z,60.51
2023-04-14T03:36:26.486Z,60.78
2023-04-14T03:40:32.505Z,60.69
2023-04-14T03:44:39.103Z,60.63
2023-04-14T03:48:44.660Z,60.71
2023-04-14T03:52:53.830Z,61.15
2023-04-14T03:56:57.721Z,61.65
2023-04-14T04:01:05.729Z,61.69
2023-04-14T04:05:09.215Z,61.93
2023-04-14T04:09:15.036Z,62.02
2023-04-14T04:13:20.738Z,61.78
2023-04-14T04:17:29.630Z,62.43
2023-04-14T04:21:33.656Z,62.29
2023-04-14T04:25:35.205Z,62.56
2023-04-14T04:29:44.256Z,62.40
2023-04-14T04:33:49.723Z,62.56
2023-04-14T04:37:54.107Z,62.67
2023-04-14T04:42:04.237Z,62.64
2023-04-14T04:46:51.755Z,62.63
2023-04-14T04:50:55.833Z,62.54
2023-04-14T04:54:56.361Z,62.50
2023-04-14T04:58:57.208Z,62.27
2023-04-14T05:02:58.402Z,61.85
2023-04-14T05:07:01.973Z,61.36
2023-04-14T05:11:02.424Z,61.33
2023-04-14T05:15:03.271Z,61.18
2023-04-14T05:19:04.146Z,60.15
2023-04-14T05:23:07.564Z,60.21
2023-04-14T05:27:14.274Z,60.76
2023-04-14T05:31:15.348Z,60.38
2023-04-14T05:35:16.336Z,60.49
2023-04-14T05:39:20.085Z,59.66
2023-04-14T05:43:20.494Z,59.57
2023-04-14T05:47:21.305Z,59.53
2023-04-14T05:51:21.758Z,58.71
2023-04-14T05:55:25.151Z,58.11
2023-04-14T05:59:25.841Z,58.07
2023-04-14T06:03:26.643Z,58.20
2023-04-14T06:07:27.622Z,58.03
2023-04-14T06:11:33.585Z,58.34
2023-04-14T06:15:37.514Z,58.04
2023-04-14T06:19:38.094Z,56.94
2023-04-14T06:23:39.297Z,56.77
2023-04-14T06:27:42.504Z,56.17
2023-04-14T06:31:43.140Z,56.44
2023-04-14T06:35:43.858Z,55.95
2023-04-14T06:39:44.525Z,56.75
2023-04-14T06:43:50.474Z,56.48
2023-04-14T06:47:51.388Z,56.67
2023-04-14T06:51:52.006Z,56.32
2023-04-14T06:55:59.884Z,55.16
2023-04-14T07:00:04.506Z,55.23
2023-04-14T07:04:08.368Z,55.85
2023-04-14T07:08:09.044Z,55.58
2023-04-14T07:12:09.884Z,55.84
2023-04-14T07:16:13.654Z,54.52
2023-04-14T07:20:15.138Z,54.13
2023-04-14T07:24:16.211Z,53.87
2023-04-14T07:28:16.954Z,52.53
2023-04-14T07:32:20.526Z,52.25
2023-04-14T07:36:21.337Z,52.81
2023-04-14T07:40:22.028Z,51.83
2023-04-14T07:44:22.602Z,51.75
2023-04-14T07:48:26.282Z,52.06
2023-04-14T07:52:26.853Z,52.18
2023-04-14T07:56:27.329Z,53.41
2023-04-14T08:00:28.202Z,54.01
2023-04-14T08:04:31.890Z,53.53
2023-04-14T08:08:32.519Z,53.20
2023-04-14T08:12:33.146Z,52.98
2023-04-14T08:16:37.140Z,51.76
2023-04-14T08:20:40.661Z,52.65
2023-04-14T08:24:41.146Z,53.88
2023-04-14T08:28:42.168Z,51.78
2023-04-14T08:32:42.682Z,50.46
2023-04-14T08:36:47.711Z,50.65
2023-04-14T08:40:50.941Z,50.24
2023-04-14T08:44:52.896Z,50.80
2023-04-14T08:49:04.348Z,51.20
2023-04-14T08:53:13.695Z,51.31
2023-04-14T08:57:20.721Z,51.00
2023-04-14T09:01:22.544Z,51.39
2023-04-14T09:05:23.638Z,50.32
2023-04-14T09:09:28.138Z,49.72
2023-04-14T09:13:31.467Z,51.18
2023-04-14T09:17:34.683Z,51.98
2023-04-14T09:21:53.382Z,50.12
2023-04-14T09:25:59.684Z,49.81
2023-04-14T09:30:01.549Z,48.40
2023-04-14T09:34:02.860Z,46.82
2023-04-14T09:38:05.222Z,46.53
2023-04-14T09:42:08.619Z,45.84
2023-04-14T09:46:11.687Z,44.99
2023-04-14T09:50:13.836Z,44.64
2023-04-14T09:54:14.550Z,44.82
2023-04-14T09:58:24.621Z,44.73
2023-04-14T10:02:28.923Z,43.93
2023-04-14T10:06:31.633Z,43.79
2023-04-14T10:10:33.742Z,45.03
2023-04-14T10:14:37.455Z,44.64
2023-04-14T10:18:38.557Z,45.20
2023-04-14T10:22:41.134Z,46.47
2023-04-14T10:26:43.089Z,46.41
2023-04-14T10:30:47.313Z,46.56
2023-04-14T10:35:05.707Z,45.96
2023-04-14T10:39:10.701Z,47.03
2023-04-14T10:43:16.201Z,47.15
2023-04-14T10:47:27.815Z,46.44
2023-04-14T10:51:39.050Z,45.81
2023-04-14T10:55:56.969Z,44.38
2023-04-14T11:00:01.694Z,43.14
2023-04-14T11:04:21.685Z,42.92
2023-04-14T11:08:29.627Z,42.55
2023-04-14T11:12:31.839Z,43.02
2023-04-14T11:16:32.887Z,43.50
2023-04-14T11:20:36.275Z,43.56
2023-04-14T11:24:37.705Z,41.96
2023-04-14T11:28:41.003Z,42.82
2023-04-14T11:32:51.894Z,42.05
2023-04-14T11:36:56.490Z,47.91
2023-04-14T11:40:59.769Z,49.34
2023-04-14T11:45:03.599Z,51.76
2023-04-14T11:49:07.355Z,53.71
2023-04-14T11:53:14.910Z,54.93
2023-04-14T11:57:17.845Z,53.88
2023-04-14T12:01:25.383Z,53.17
2023-04-14T12:05:50.879Z,53.13
2023-04-14T12:20:27.426Z,50.91
2023-04-14T12:25:10.784Z,50.97
2023-04-14T12:29:56.815Z,51.84
2023-04-14T12:34:28.286Z,52.62
2023-04-14T12:45:15.427Z,55.97
2023-04-14T12:50:03.338Z,55.98
2023-04-14T12:55:13.680Z,55.57
2023-04-14T12:59:35.586Z,56.15
2023-04-14T13:03:47.869Z,55.21
2023-04-14T13:07:57.761Z,52.53
2023-04-14T13:11:58.315Z,50.09
2023-04-14T13:16:14.245Z,49.57
2023-04-14T13:20:47.312Z,49.52
2023-04-14T13:26:45.092Z,50.84
2023-04-14T13:30:41.893Z,51.55
2023-04-14T13:34:52.621Z,52.22
2023-04-14T13:38:55.902Z,53.25
2023-04-14T13:42:58.604Z,54.06
2023-04-14T13:47:22.858Z,56.04
2023-04-14T13:56:27.500Z,56.63
2023-04-14T14:00:27.987Z,56.91
2023-04-14T14:04:28.387Z,58.46
2023-04-14T14:08:30.410Z,58.67
2023-04-14T14:12:34.563Z,58.62
2023-04-14T14:16:37.027Z,59.13
2023-04-14T14:20:37.639Z,58.15
2023-04-14T14:24:37.830Z,57.67
2023-04-14T14:28:40.589Z,57.87
2023-04-14T14:32:40.794Z,57.23
2023-04-14T14:36:41.126Z,58.08
2023-04-14T14:40:41.339Z,58.21
2023-04-14T14:44:44.357Z,58.19
2023-04-14T14:48:44.586Z,57.08
2023-04-14T14:52:45.861Z,57.06
2023-04-14T14:56:46.010Z,56.70
2023-04-14T15:00:49.670Z,57.46
2023-04-14T15:04:50.068Z,58.81
2023-04-14T15:08:51.737Z,58.45
2023-04-14T15:12:52.038Z,58.37
2023-04-14T15:16:54.923Z,58.69
2023-04-14T15:20:56.977Z,58.62
2023-04-14T15:24:57.179Z,57.98
2023-04-14T15:28:57.342Z,58.23
2023-04-14T15:33:01.143Z,57.68
2023-04-14T15:37:01.605Z,56.78
2023-04-14T15:41:04.434Z,56.59
2023-04-14T15:45:04.776Z,57.54
2023-04-14T15:49:07.589Z,56.37
2023-04-14T15:53:08.372Z,55.88
2023-04-14T15:57:09.294Z,54.49
2023-04-14T16:01:12.736Z,53.60
2023-04-14T16:05:15.768Z,54.16
2023-04-14T16:09:16.197Z,54.15
2023-04-14T16:13:17.106Z,53.73
2023-04-14T16:17:17.591Z,53.68
2023-04-14T16:21:20.437Z,53.49
2023-04-14T16:25:22.834Z,52.49
2023-04-14T16:29:23.646Z,52.33
2023-04-14T16:33:24.073Z,54.35
2023-04-14T16:37:28.521Z,55.82
2023-04-14T16:41:29.037Z,56.46
2023-04-14T16:45:29.317Z,56.72
2023-04-14T16:49:29.723Z,56.87
2023-04-14T16:53:32.823Z,57.14
2023-04-14T16:57:33.386Z,57.32
2023-04-14T17:01:33.710Z,57.21
2023-04-14T17:05:34.046Z,59.07
2023-04-14T17:09:37.084Z,58.92
2023-04-14T17:13:37.479Z,58.15
2023-04-14T17:17:38.738Z,58.13
2023-04-14T17:21:39.256Z,57.38
2023-04-14T17:25:42.115Z,58.66
2023-04-14T17:29:42.844Z,58.71
2023-04-14T17:33:44.587Z,57.76
2023-04-14T17:37:44.857Z,57.25
2023-04-14T17:41:48.128Z,56.85
2023-04-14T17:45:50.633Z,57.42
2023-04-14T17:49:52.717Z,57.85
2023-04-14T17:53:53.912Z,58.15
2023-04-14T17:57:57.893Z,58.48
2023-04-14T18:01:58.174Z,58.60
2023-04-14T18:05:58.469Z,58.75
2023-04-14T18:09:58.784Z,59.07
2023-04-14T18:14:02.128Z,59.03
2023-04-14T18:18:03.201Z,59.13
2023-04-14T18:22:03.814Z,59.08
2023-04-14T18:30:12.364Z,59.17
2023-04-14T18:34:14.049Z,59.01
2023-04-14T18:38:14.254Z,58.34
2023-04-14T18:42:15.503Z,60.02
2023-04-14T18:46:18.490Z,60.09
2023-04-14T18:50:20.477Z,60.19
2023-04-14T18:54:21.569Z,60.84
2023-04-14T18:58:23.236Z,60.86
2023-04-14T19:02:26.423Z,61.15
2023-04-14T19:06:26.868Z,60.67
2023-04-14T19:10:27.964Z,60.25
2023-04-14T19:14:28.580Z,59.71
2023-04-14T19:18:31.410Z,59.95
2023-04-14T19:22:31.616Z,60.17
2023-04-14T19:26:34.564Z,59.91
2023-04-14T19:30:35.778Z,59.87
2023-04-14T19:34:38.685Z,59.19
2023-04-14T19:38:39.750Z,58.54
2023-04-14T19:42:40.081Z,58.55
2023-04-14T19:46:42.359Z,58.79
2023-04-14T19:50:45.708Z,59.42
2023-04-14T19:54:46.532Z,59.33
2023-04-14T19:58:46.784Z,60.02
2023-04-14T20:02:47.528Z,59.21
2023-04-14T20:06:50.734Z,59.49
2023-04-14T20:10:52.093Z,59.24
2023-04-14T20:14:52.606Z,59.57
2023-04-14T20:18:53.085Z,59.76
2023-04-14T20:22:57.453Z,60.15
2023-04-14T20:26:57.795Z,60.15
2023-04-14T20:30:58.502Z,60.13
2023-04-14T20:34:58.932Z,60.41
2023-04-14T20:39:01.979Z,60.15
2023-04-14T20:43:02.617Z,60.65
2023-04-14T20:47:03.950Z,60.16
2023-04-14T20:51:04.483Z,60.08
2023-04-14T20:55:13.628Z,60.55
2023-04-14T20:59:17.092Z,60.84
2023-04-14T21:03:17.706Z,61.18
2023-04-14T21:07:18.347Z,61.26
2023-04-14T21:11:22.850Z,61.22
2023-04-14T21:15:50.560Z,61.00
2023-04-14T21:19:46.737Z,61.16
2023-04-14T21:23:48.777Z,60.72
2023-04-14T21:27:52.301Z,61.51
2023-04-14T21:31:54.329Z,61.60
2023-04-14T21:35:55.815Z,61.78
2023-04-14T21:39:59.480Z,61.43
2023-04-14T21:44:02.937Z,61.17
2023-04-14T21:48:05.474Z,60.95
2023-04-14T21:52:06.032Z,60.92
2023-04-14T21:56:10.353Z,61.59
2023-04-14T22:00:18.323Z,61.88
2023-04-14T22:04:33.107Z,61.74
2023-04-14T22:08:36.163Z,62.03
2023-04-14T22:12:37.718Z,61.87
2023-04-14T22:16:41.254Z,61.23
2023-04-14T22:20:41.545Z,62.05
2023-04-14T22:24:41.671Z,61.67
2023-04-14T22:28:42.194Z,61.49
2023-04-14T22:32:45.002Z,61.71
2023-04-14T22:36:45.409Z,61.54
2023-04-14T22:40:52.333Z,61.71
2023-04-14T22:45:00.157Z,61.36
2023-04-14T22:49:03.752Z,61.06
2023-04-14T22:53:04.044Z,61.23
2023-04-14T22:57:04.264Z,61.10
2023-04-14T23:01:15.522Z,61.58
2023-04-14T23:05:24.548Z,62.24
2023-04-14T23:09:24.851Z,61.84
2023-04-14T23:13:25.350Z,62.24
2023-04-14T23:17:25.744Z,62.38
2023-04-14T23:21:28.683Z,62.22
2023-04-14T23:25:29.697Z,62.66
2023-04-14T23:29:29.974Z,62.04
2023-04-14T23:33:30.499Z,62.03
2023-04-14T23:37:33.495Z,62.17
2023-04-14T23:41:34.007Z,61.96
2023-04-14T23:45:37.436Z,62.35
2023-04-14T23:49:37.734Z,61.62
2023-04-14T23:53:40.489Z,61.12
2023-04-14T23:57:40.934Z,61.10
